Meteo Giornale » Osservazioni meteo Italia » Grazzanise

ore: 04:55 - Osservazioni Meteo Grazzanise
Lat. 41° 3' N Lon. 14° 4' E Alt. 9 metri s.l.m.

poco_nuvoloso Europe/Rome

16 °C

Poco Nuvoloso

Temp. 24 Ore

16 °C

27 °C

Nord

0 Km/h

Dew point 15 °C

Umidità 93 %

Visibilità  10 Km

Il sole sorge alle ore 06:52

Il sole tramonta alle ore 18:58

Data e Ora Cielo e Fenomeni T °C DP °C Um. % Pres. hPa Vis. km Vento km/h
Oggi h: 04:55 poco_nuvoloso Poco Nuvoloso 16 15 93 1013 10 N 0
Oggi h: 03:55 poco_nuvoloso Poco Nuvoloso 17 16 93 1013 10 N 0
Oggi h: 02:55 nuvoloso Nuvoloso 17 16 93 1013 10 N 0
Oggi h: 01:55 nuvoloso Nuvoloso 17 17 100 1013 10 N 1.8
Oggi h: 00:55 nuvoloso_temporali Temporale con Pioggia Debole 17 16 93 1013 7 N 0
Oggi h: 00:10 coperto_temporali Temporale 17 16 93 1013 10 N 0
Ieri h: 23:55 sereno Sereno 17 16 93 1013 10 N 0
Ieri h: 22:55 sereno Sereno 17 16 93 1013 10 N 1.8
Ieri h: 21:55 sereno Sereno 18 16 88 1013 10 N 0
Ieri h: 20:55 poco_nuvoloso Poco Nuvoloso 19 17 88 1012 10 N 0
Ieri h: 19:55 poco_nuvoloso Poco Nuvoloso 20 18 88 1012 10 N 0
Ieri h: 18:55 poco_nuvoloso Poco Nuvoloso 21 18 82 1012 10 N 0
Ieri h: 17:55 nuvoloso Nuvoloso 21 19 88 1012 10 N 0
Ieri h: 16:55 nuvoloso Nuvoloso 21 18 82 1013 10 N 0
Ieri h: 15:55 nuvoloso Nuvoloso 20 18 88 1013 10 N 0
Ieri h: 15:16 nuvoloso_temporali Temporale con Pioggia Debole 17 16 93 1013 6 N 0
Ieri h: 14:55 nuvoloso_temporali Temporale con Pioggia 18 17 93 1013 1 N 0
Ieri h: 14:15 coperto_temporali Temporale 27 -30 1 1013 10 N 0
Ieri h: 13:55 nuvoloso Nuvoloso 27 19 61 1013 10 N 0
Ieri h: 12:55 poco_nuvoloso Poco Nuvoloso 26 19 65 1013 10 N 0
Ieri h: 11:55 nuvoloso Nuvoloso 24 21 83 1013 10 N 0
Ieri h: 09:55 molto_nuvoloso Molto Nuvoloso 20 18 88 1013 10 N 0
Ieri h: 06:55 coperto_temporali Temporale 18 16 88 1013 10 N 0